Time;durP1;ratioP1;P1;durP2;ratioP2;P2;SDS_P1;SDS_P2;PMS_P1;PMS_P2;Temp;Humidity;BMP_temperature;BMP_pressure;BME280_temperature;BME280_humidity;BME280_pressure;Samples;Min_cycle;Max_cycle;Signal;HPM_P1;HPM_P2
2022/07/30 00:01:44;;;;;;;12.90;5.40;;;15.20;99.90;;;;;;5059042;28;20625;-60
2022/07/30 00:04:12;;;;;;;8.00;5.93;;;15.10;99.90;;;;;;5099546;28;20280;-60
2022/07/30 00:06:42;;;;;;;7.03;6.33;;;15.10;99.90;;;;;;5068606;28;20190;-60
2022/07/30 00:09:11;;;;;;;9.67;6.30;;;15.00;99.90;;;;;;5069348;28;20216;-60
2022/07/30 00:11:39;;;;;;;9.80;6.27;;;15.00;99.90;;;;;;5070261;28;20270;-60
2022/07/30 00:14:07;;;;;;;9.70;5.87;;;15.00;99.90;;;;;;5068703;28;20205;-60
2022/07/30 00:16:36;;;;;;;12.00;6.50;;;14.90;99.90;;;;;;5067178;28;20200;-60
2022/07/30 00:19:06;;;;;;;8.03;6.20;;;14.90;99.90;;;;;;5070523;28;20513;-60
2022/07/30 00:21:35;;;;;;;12.40;6.53;;;14.80;99.90;;;;;;5065261;28;20196;-60
2022/07/30 00:24:07;;;;;;;12.27;7.53;;;14.80;99.90;;;;;;5066638;28;20270;-60
2022/07/30 00:26:36;;;;;;;10.67;7.77;;;14.80;99.90;;;;;;5065713;28;20227;-60
2022/07/30 00:29:04;;;;;;;9.87;7.53;;;14.80;99.90;;;;;;5057329;28;20199;-60
2022/07/30 00:31:33;;;;;;;12.90;7.93;;;14.80;99.90;;;;;;5069187;28;20242;-60
2022/07/30 00:34:01;;;;;;;7.77;6.97;;;14.70;99.90;;;;;;5090973;28;20200;-60
2022/07/30 00:36:32;;;;;;;11.57;7.70;;;14.70;99.90;;;;;;5066074;28;20189;-60
2022/07/30 00:39:00;;;;;;;10.07;7.57;;;14.70;99.90;;;;;;5066543;28;20749;-60
2022/07/30 00:41:28;;;;;;;12.60;7.90;;;14.60;99.90;;;;;;5066939;28;20202;-60
2022/07/30 00:43:57;;;;;;;21.13;9.60;;;14.60;99.90;;;;;;5081154;28;20672;-60
2022/07/30 00:46:25;;;;;;;15.10;8.53;;;14.60;99.90;;;;;;5060201;28;20196;-60
2022/07/30 00:48:54;;;;;;;8.50;7.60;;;14.70;99.90;;;;;;5060191;28;20196;-60
2022/07/30 00:51:22;;;;;;;10.13;7.63;;;14.70;99.90;;;;;;5065125;28;20291;-60
2022/07/30 00:53:52;;;;;;;10.60;7.57;;;14.60;99.90;;;;;;5066570;28;20279;-60
2022/07/30 00:56:20;;;;;;;9.50;8.10;;;14.50;99.90;;;;;;5065391;28;20221;-60
2022/07/30 00:58:48;;;;;;;11.63;7.80;;;14.50;99.90;;;;;;5065225;28;20188;-60
2022/07/30 01:01:17;;;;;;;12.07;7.50;;;14.40;99.90;;;;;;5065657;28;20192;-60
2022/07/30 01:03:45;;;;;;;9.43;8.10;;;14.30;99.90;;;;;;5064386;28;20279;-60
2022/07/30 01:06:16;;;;;;;10.40;8.30;;;14.30;99.90;;;;;;5057375;28;20280;-60
2022/07/30 01:08:44;;;;;;;10.93;8.80;;;14.30;99.90;;;;;;5067091;28;20306;-60
2022/07/30 01:11:14;;;;;;;15.50;9.43;;;14.30;99.90;;;;;;5060166;28;20220;-60
2022/07/30 01:13:43;;;;;;;12.17;9.00;;;14.30;99.90;;;;;;5058070;28;20223;-60
2022/07/30 01:16:11;;;;;;;11.97;8.87;;;14.30;99.90;;;;;;5065797;28;20274;-60
2022/07/30 01:21:34;;;;;;;11.83;9.23;;;14.30;99.90;;;;;;5068973;28;20215;-60
2022/07/30 01:24:12;;;;;;;14.57;10.03;;;14.30;99.90;;;;;;5067248;28;20906;-60
2022/07/30 01:26:42;;;;;;;17.43;10.00;;;14.30;99.90;;;;;;5069893;28;20253;-60
2022/07/30 01:29:13;;;;;;;12.27;9.10;;;14.30;99.90;;;;;;5069977;28;20518;-60
2022/07/30 01:31:44;;;;;;;14.40;9.90;;;14.30;99.90;;;;;;5072383;28;20203;-60
2022/07/30 01:34:14;;;;;;;18.57;10.50;;;14.30;99.90;;;;;;5068306;28;20188;-60
2022/07/30 01:36:46;;;;;;;16.50;10.60;;;14.30;99.90;;;;;;5070297;28;20283;-60
2022/07/30 01:39:17;;;;;;;13.03;9.67;;;14.30;99.90;;;;;;5069628;28;20279;-60
2022/07/30 01:41:49;;;;;;;12.27;9.03;;;14.20;99.90;;;;;;5061519;28;20528;-60
2022/07/30 01:44:18;;;;;;;13.67;9.60;;;14.10;99.90;;;;;;5072255;28;20566;-60
2022/07/30 01:46:52;;;;;;;15.77;10.87;;;14.10;99.90;;;;;;5071839;28;20211;-60
2022/07/30 01:49:22;;;;;;;17.20;11.00;;;14.00;99.90;;;;;;5069183;28;20708;-60
2022/07/30 01:51:52;;;;;;;14.00;10.03;;;14.00;99.90;;;;;;5061185;28;20209;-60
2022/07/30 01:54:24;;;;;;;16.70;11.03;;;14.00;99.90;;;;;;5069961;28;20275;-60
2022/07/30 01:56:56;;;;;;;16.07;10.83;;;14.00;99.90;;;;;;5069848;28;20703;-60
2022/07/30 01:59:26;;;;;;;14.87;10.70;;;13.90;99.90;;;;;;5065320;28;20199;-60
2022/07/30 02:01:55;;;;;;;14.47;10.70;;;13.80;99.90;;;;;;5072352;28;20678;-60
2022/07/30 02:04:23;;;;;;;18.53;11.10;;;13.80;99.90;;;;;;5070530;28;20321;-62
2022/07/30 02:06:59;;;;;;;19.07;11.93;;;13.70;99.90;;;;;;5067194;28;20303;-60
2022/07/30 02:09:33;;;;;;;18.30;12.10;;;13.70;99.90;;;;;;5070131;28;20191;-60
2022/07/30 02:15:00;;;;;;;17.23;11.80;;;13.50;99.90;;;;;;5068312;28;20564;-60
2022/07/30 02:17:32;;;;;;;15.63;11.90;;;13.50;99.90;;;;;;5071100;28;20282;-60
2022/07/30 02:20:09;;;;;;;21.37;12.30;;;13.50;99.90;;;;;;5064872;28;20211;-60
2022/07/30 02:22:41;;;;;;;16.47;12.27;;;13.50;99.90;;;;;;5068145;28;20616;-60
2022/07/30 02:25:13;;;;;;;18.50;12.07;;;13.40;99.90;;;;;;5062841;28;20192;-60
2022/07/30 02:27:45;;;;;;;19.20;12.67;;;13.40;99.90;;;;;;5072318;28;20271;-60
2022/07/30 02:30:14;;;;;;;21.20;13.87;;;13.40;99.90;;;;;;5066908;28;20644;-60
2022/07/30 02:32:44;;;;;;;16.53;13.23;;;13.40;99.90;;;;;;5066755;28;20529;-60
2022/07/30 02:35:17;;;;;;;19.70;13.37;;;13.50;99.90;;;;;;5068564;28;20821;-60
2022/07/30 02:37:46;;;;;;;21.37;13.00;;;13.40;99.90;;;;;;5071792;28;20200;-60
2022/07/30 02:40:17;;;;;;;20.73;12.80;;;13.40;99.90;;;;;;5071152;28;20216;-60
2022/07/30 02:42:50;;;;;;;16.47;13.20;;;13.40;99.90;;;;;;5072268;28;20258;-60
2022/07/30 02:45:20;;;;;;;21.83;14.40;;;13.40;99.90;;;;;;5071034;28;20210;-60
2022/07/30 02:47:52;;;;;;;19.57;13.87;;;13.30;99.90;;;;;;5071151;28;20668;-60
2022/07/30 02:50:21;;;;;;;18.97;14.70;;;13.30;99.90;;;;;;5064437;28;20194;-60
2022/07/30 02:52:52;;;;;;;20.20;13.80;;;13.30;99.90;;;;;;5068872;28;20198;-60
2022/07/30 02:55:21;;;;;;;20.47;14.00;;;13.30;99.90;;;;;;5065688;28;20202;-60
2022/07/30 02:57:53;;;;;;;19.37;13.87;;;13.30;99.90;;;;;;5068506;28;20202;-60
2022/07/30 03:00:23;;;;;;;25.43;13.67;;;13.30;99.90;;;;;;5067424;28;20272;-60
2022/07/30 03:02:54;;;;;;;22.70;14.70;;;13.20;99.90;;;;;;5064310;28;20198;-60
2022/07/30 03:05:24;;;;;;;22.77;14.23;;;13.20;99.90;;;;;;5058175;28;20193;-60
2022/07/30 03:07:56;;;;;;;20.37;14.20;;;13.20;99.90;;;;;;5058442;28;20242;-60
2022/07/30 03:10:25;;;;;;;21.07;14.93;;;13.20;99.90;;;;;;5068311;28;20214;-60
2022/07/30 03:12:56;;;;;;;19.93;14.00;;;13.20;99.90;;;;;;5071956;28;20212;-60
2022/07/30 03:15:26;;;;;;;25.00;16.13;;;13.30;99.90;;;;;;5069273;28;20237;-60
2022/07/30 03:17:56;;;;;;;20.67;14.43;;;13.40;99.90;;;;;;5071979;28;20274;-60
2022/07/30 03:20:28;;;;;;;20.97;14.00;;;13.40;99.90;;;;;;5062600;28;20742;-60
2022/07/30 03:22:59;;;;;;;25.03;15.30;;;13.40;99.90;;;;;;5065255;28;20200;-60
2022/07/30 03:25:29;;;;;;;22.40;14.63;;;13.30;99.90;;;;;;5065356;28;20274;-60
2022/07/30 03:28:01;;;;;;;29.27;14.30;;;13.30;99.90;;;;;;5067672;28;20266;-60
2022/07/30 03:30:30;;;;;;;24.53;15.00;;;13.20;99.90;;;;;;5067163;28;20203;-60
2022/07/30 03:32:59;;;;;;;24.57;14.83;;;13.20;99.90;;;;;;5098208;28;20212;-60
2022/07/30 03:35:28;;;;;;;20.90;14.90;;;13.20;99.90;;;;;;5069142;28;20192;-61
2022/07/30 03:37:59;;;;;;;20.83;15.50;;;13.30;99.90;;;;;;5077970;28;20683;-60
2022/07/30 03:40:29;;;;;;;24.00;15.20;;;13.30;99.90;;;;;;5056533;28;20270;-60
2022/07/30 03:43:00;;;;;;;22.73;15.10;;;13.40;99.90;;;;;;5064186;28;20275;-61
2022/07/30 03:45:28;;;;;;;21.63;14.37;;;13.40;99.90;;;;;;5069733;28;20279;-60
2022/07/30 03:47:58;;;;;;;22.47;14.50;;;13.40;99.90;;;;;;5069836;28;20275;-60
2022/07/30 03:50:27;;;;;;;21.33;13.80;;;13.30;99.90;;;;;;5063910;28;20200;-60
2022/07/30 03:52:56;;;;;;;22.70;15.20;;;13.30;99.90;;;;;;5068192;28;20208;-60
2022/07/30 03:55:25;;;;;;;22.87;14.80;;;13.30;99.90;;;;;;5060789;28;20787;-60
2022/07/30 03:57:53;;;;;;;23.63;15.23;;;13.30;99.90;;;;;;5062760;28;20265;-60
2022/07/30 04:00:24;;;;;;;26.20;16.77;;;13.30;99.90;;;;;;5066118;28;20200;-60
2022/07/30 04:03:23;;;;;;;23.70;15.07;;;13.40;99.90;;;;;;5064573;28;20196;-60
2022/07/30 04:05:54;;;;;;;23.10;15.03;;;13.40;99.90;;;;;;5093329;28;20192;-60
2022/07/30 04:08:23;;;;;;;25.87;14.53;;;13.40;99.90;;;;;;5059548;28;20220;-60
2022/07/30 04:10:52;;;;;;;24.17;15.60;;;13.40;99.90;;;;;;5065885;28;20279;-60
2022/07/30 04:13:21;;;;;;;22.30;15.77;;;13.40;99.90;;;;;;5065633;28;20302;-60
2022/07/30 04:15:58;;;;;;;21.03;14.97;;;13.30;99.90;;;;;;5064307;28;20279;-60
2022/07/30 04:18:50;;;;;;;22.93;15.40;;;13.30;99.90;;;;;;5058406;28;20651;-60
2022/07/30 04:21:22;;;;;;;21.07;14.57;;;13.30;99.90;;;;;;5093994;28;20196;-61
2022/07/30 04:23:52;;;;;;;18.57;14.53;;;13.30;99.90;;;;;;5064994;28;20249;-60
2022/07/30 04:26:34;;;;;;;27.33;15.10;;;13.30;99.90;;;;;;5067012;28;20282;-61
2022/07/30 04:29:06;;;;;;;26.30;15.00;;;13.40;99.90;;;;;;5061664;28;20247;-60
2022/07/30 04:31:36;;;;;;;23.03;15.03;;;13.40;99.90;;;;;;5066428;28;20223;-61
2022/07/30 04:34:08;;;;;;;23.83;14.63;;;13.40;99.90;;;;;;5065383;28;20272;-60
2022/07/30 04:36:37;;;;;;;19.93;14.27;;;13.40;99.90;;;;;;5062025;28;20540;-61
2022/07/30 04:39:05;;;;;;;18.70;14.67;;;13.40;99.90;;;;;;5065062;28;20195;-60
2022/07/30 04:41:34;;;;;;;18.93;14.43;;;13.50;99.90;;;;;;5070564;28;20208;-61
2022/07/30 04:44:18;;;;;;;21.83;15.43;;;13.50;99.90;;;;;;5056919;28;20192;-61
2022/07/30 04:46:47;;;;;;;16.73;14.37;;;13.50;99.90;;;;;;5063699;28;20195;-61
2022/07/30 04:49:18;;;;;;;22.00;14.63;;;13.50;99.90;;;;;;5063407;28;20226;-61
2022/07/30 04:51:48;;;;;;;20.03;15.67;;;13.60;99.90;;;;;;5061281;28;20217;-60
2022/07/30 04:54:19;;;;;;;19.63;13.97;;;13.60;99.90;;;;;;5067925;28;20194;-61
2022/07/30 04:56:49;;;;;;;21.40;15.10;;;13.70;99.90;;;;;;5066645;28;20699;-61
2022/07/30 04:59:28;;;;;;;23.90;14.90;;;13.70;99.90;;;;;;5054297;28;20278;-61
2022/07/30 05:02:00;;;;;;;20.73;14.73;;;13.70;99.90;;;;;;5062197;28;20543;-61
2022/07/30 05:04:31;;;;;;;19.93;14.50;;;13.80;99.90;;;;;;5058894;28;20247;-61
2022/07/30 05:07:01;;;;;;;24.07;15.93;;;13.90;99.90;;;;;;5056195;28;20852;-61
2022/07/30 05:09:32;;;;;;;19.83;14.90;;;13.90;99.90;;;;;;5068008;28;20279;-61
2022/07/30 05:12:00;;;;;;;21.77;15.13;;;14.00;99.90;;;;;;5059883;28;20686;-61
2022/07/30 05:14:28;;;;;;;21.33;15.87;;;14.10;99.90;;;;;;5061646;28;20192;-61
2022/07/30 05:16:59;;;;;;;16.60;14.53;;;14.20;99.90;;;;;;5054259;28;20282;-61
2022/07/30 05:19:27;;;;;;;16.87;13.87;;;14.40;99.90;;;;;;5065301;28;20211;-61
2022/07/30 05:21:56;;;;;;;18.17;13.50;;;14.60;99.90;;;;;;5064004;28;20287;-61
2022/07/30 05:24:24;;;;;;;16.27;13.43;;;14.70;99.90;;;;;;5060865;28;20693;-61
2022/07/30 05:26:53;;;;;;;16.83;14.03;;;14.90;99.90;;;;;;5059981;28;20556;-61
2022/07/30 05:29:22;;;;;;;21.33;13.80;;;15.10;99.90;;;;;;5065898;28;20257;-61
2022/07/30 05:31:51;;;;;;;18.60;13.07;;;15.20;99.90;;;;;;5067837;28;20236;-61
2022/07/30 05:34:21;;;;;;;20.77;13.17;;;15.30;99.90;;;;;;5064867;28;20208;-61
2022/07/30 05:36:50;;;;;;;16.63;13.67;;;15.40;99.90;;;;;;5069339;28;20211;-61
2022/07/30 05:39:18;;;;;;;20.30;14.47;;;15.50;99.90;;;;;;5066869;28;20208;-61
2022/07/30 05:41:47;;;;;;;19.50;14.27;;;15.50;99.90;;;;;;5066582;28;20200;-61
2022/07/30 05:44:16;;;;;;;16.27;13.57;;;15.60;99.90;;;;;;5064138;28;20284;-61
2022/07/30 05:46:51;;;;;;;21.03;14.10;;;15.70;99.90;;;;;;5066416;28;20599;-61
2022/07/30 05:49:21;;;;;;;17.17;14.10;;;15.80;99.90;;;;;;5059991;28;20228;-61
2022/07/30 05:51:49;;;;;;;15.73;13.57;;;16.00;99.90;;;;;;5060613;28;20213;-61
2022/07/30 05:54:18;;;;;;;21.43;14.13;;;16.10;99.90;;;;;;5091881;28;20217;-61
2022/07/30 05:56:47;;;;;;;21.33;13.73;;;16.30;99.90;;;;;;5070271;28;20242;-61
2022/07/30 05:59:16;;;;;;;22.50;14.53;;;16.60;99.90;;;;;;5068687;28;20207;-61
2022/07/30 06:01:44;;;;;;;21.90;14.23;;;16.80;99.90;;;;;;5069949;28;20303;-61
2022/07/30 06:04:13;;;;;;;20.43;13.13;;;17.00;99.90;;;;;;5071348;28;20280;-61
2022/07/30 06:06:42;;;;;;;18.37;12.17;;;17.20;99.90;;;;;;5073048;28;20195;-60
2022/07/30 06:09:12;;;;;;;20.20;12.93;;;17.30;99.90;;;;;;5073592;28;20551;-61
2022/07/30 06:11:40;;;;;;;16.03;11.53;;;17.50;99.90;;;;;;5073907;28;20227;-61
2022/07/30 06:14:08;;;;;;;16.70;11.60;;;17.70;99.90;;;;;;5069291;28;20215;-61
2022/07/30 06:16:37;;;;;;;16.93;11.97;;;17.70;99.90;;;;;;5070804;28;20693;-61
2022/07/30 06:19:05;;;;;;;14.60;11.50;;;17.80;99.90;;;;;;5067533;28;20533;-61
2022/07/30 06:21:33;;;;;;;20.43;11.97;;;17.90;99.90;;;;;;5067360;28;20286;-61
2022/07/30 06:24:23;;;;;;;14.80;10.47;;;17.90;99.90;;;;;;5066049;28;20197;-61
2022/07/30 06:26:58;;;;;;;13.47;10.80;;;18.00;99.90;;;;;;5063485;28;20196;-61
2022/07/30 06:29:27;;;;;;;20.17;11.57;;;18.20;99.90;;;;;;5066446;28;20184;-61
2022/07/30 06:31:55;;;;;;;16.23;10.87;;;18.30;99.90;;;;;;5062224;28;20284;-61
2022/07/30 06:34:24;;;;;;;14.47;9.43;;;18.40;99.90;;;;;;5057517;28;20220;-61
2022/07/30 06:36:52;;;;;;;11.13;9.10;;;18.60;99.90;;;;;;5073613;28;20253;-61
2022/07/30 06:39:21;;;;;;;15.10;9.90;;;18.70;99.90;;;;;;5069052;28;20234;-61
2022/07/30 06:42:11;;;;;;;11.93;9.70;;;18.90;99.90;;;;;;5062434;28;20188;-62
2022/07/30 06:44:40;;;;;;;12.53;9.37;;;19.20;99.90;;;;;;5068969;28;20254;-61
2022/07/30 06:47:09;;;;;;;15.73;9.40;;;19.30;99.90;;;;;;5070530;28;20205;-61
2022/07/30 06:49:38;;;;;;;15.40;8.93;;;19.40;99.90;;;;;;5070465;28;20196;-61
2022/07/30 06:52:07;;;;;;;11.90;8.17;;;19.60;99.90;;;;;;5066012;28;20251;-61
2022/07/30 06:54:35;;;;;;;10.07;7.13;;;19.80;99.90;;;;;;5064361;28;20213;-61
2022/07/30 06:57:04;;;;;;;11.40;7.00;;;19.90;99.90;;;;;;5066869;28;20200;-61
2022/07/30 06:59:35;;;;;;;7.80;6.10;;;20.30;99.90;;;;;;5063268;28;20196;-61
2022/07/30 07:02:24;;;;;;;10.13;5.27;;;20.50;99.90;;;;;;5056573;28;20192;-61
2022/07/30 07:04:53;;;;;;;5.57;4.70;;;20.80;99.90;;;;;;5059753;28;20193;-61
2022/07/30 07:07:21;;;;;;;9.20;6.30;;;20.90;99.90;;;;;;5071186;28;20315;-61
2022/07/30 07:10:09;;;;;;;9.17;6.37;;;21.20;99.90;;;;;;5061475;28;20196;-61
2022/07/30 07:12:38;;;;;;;16.13;6.40;;;21.80;99.90;;;;;;5063158;28;20305;-61
2022/07/30 07:15:09;;;;;;;12.47;6.90;;;21.80;99.90;;;;;;5090594;28;20205;-62
2022/07/30 07:17:39;;;;;;;12.00;6.10;;;21.90;99.90;;;;;;5066550;28;20201;-61
2022/07/30 07:20:08;;;;;;;14.43;5.87;;;21.90;99.90;;;;;;5062167;28;20232;-62
2022/07/30 07:22:37;;;;;;;10.77;5.60;;;21.80;99.90;;;;;;5062926;28;20202;-61
2022/07/30 07:25:06;;;;;;;9.57;5.57;;;21.80;99.90;;;;;;5068473;28;20234;-62
2022/07/30 07:27:36;;;;;;;8.77;5.33;;;22.10;99.90;;;;;;5070396;28;20219;-61
2022/07/30 07:30:05;;;;;;;10.33;4.77;;;22.40;99.90;;;;;;5059676;28;20192;-61
2022/07/30 07:32:36;;;;;;;14.43;5.80;;;22.60;99.90;;;;;;5069105;28;20220;-61
2022/07/30 07:35:05;;;;;;;5.83;4.47;;;22.80;99.90;;;;;;5067901;28;20212;-62
2022/07/30 07:37:34;;;;;;;11.37;5.30;;;22.90;99.90;;;;;;5071022;28;20537;-61
2022/07/30 07:40:03;;;;;;;9.82;5.03;;;23.20;99.90;;;;;;5067490;28;20207;-61
2022/07/30 07:42:32;;;;;;;6.82;5.00;;;23.50;99.90;;;;;;5061537;28;20221;-61
2022/07/30 07:45:00;;;;;;;6.22;3.50;;;24.10;99.90;;;;;;5071773;28;20673;-62
2022/07/30 07:47:29;;;;;;;7.38;3.35;;;24.10;99.90;;;;;;5063361;28;20254;-62
2022/07/30 07:49:59;;;;;;;7.97;3.40;;;24.20;99.90;;;;;;5065530;28;20212;-62
2022/07/30 07:52:27;;;;;;;5.95;2.97;;;24.50;99.90;;;;;;5068620;28;20197;-62
2022/07/30 07:54:55;;;;;;;6.18;2.92;;;24.60;99.90;;;;;;5071358;28;20301;-62
2022/07/30 07:57:24;;;;;;;4.00;2.38;;;24.80;99.90;;;;;;5078128;28;20213;-61
2022/07/30 07:59:55;;;;;;;5.40;2.60;;;25.10;99.90;;;;;;5062281;28;20211;-61
2022/07/30 08:02:24;;;;;;;4.82;2.50;;;25.50;99.90;;;;;;5068748;28;20205;-62
2022/07/30 08:04:53;;;;;;;4.32;2.53;;;25.90;99.90;;;;;;5076499;28;20193;-62
2022/07/30 08:07:23;;;;;;;4.63;1.83;;;26.20;99.90;;;;;;5071794;28;20266;-62
2022/07/30 08:09:54;;;;;;;3.05;1.80;;;26.60;99.90;;;;;;5071505;28;20223;-62
2022/07/30 08:12:22;;;;;;;5.22;1.88;;;26.40;99.90;;;;;;5071795;28;20266;-62
2022/07/30 08:14:51;;;;;;;2.88;1.63;;;25.80;99.90;;;;;;5066127;28;20251;-62
2022/07/30 08:17:19;;;;;;;2.72;2.08;;;25.40;99.90;;;;;;5062710;28;20210;-61
2022/07/30 08:19:48;;;;;;;3.17;1.83;;;25.10;99.90;;;;;;5057195;28;20256;-61
2022/07/30 08:22:17;;;;;;;3.65;1.90;;;25.10;99.90;;;;;;5070683;28;20198;-61
2022/07/30 08:24:46;;;;;;;5.18;1.70;;;25.40;99.90;;;;;;5072343;28;20283;-62
2022/07/30 08:27:15;;;;;;;2.85;1.88;;;25.90;99.90;;;;;;5066508;28;20186;-62
2022/07/30 08:29:44;;;;;;;1.80;1.70;;;26.20;99.90;;;;;;5067670;28;20578;-62
2022/07/30 08:32:12;;;;;;;2.55;1.90;;;26.40;99.90;;;;;;5098802;28;20207;-62
2022/07/30 08:34:41;;;;;;;7.38;1.95;;;26.90;99.90;;;;;;5063185;28;20226;-62
2022/07/30 08:37:09;;;;;;;3.53;1.77;;;27.40;99.90;;;;;;5069741;28;20959;-62
2022/07/30 08:39:41;;;;;;;2.03;1.90;;;27.70;99.90;;;;;;5095901;28;20690;-62
2022/07/30 08:42:15;;;;;;;3.45;1.70;;;27.10;99.90;;;;;;5075074;28;20195;-61
2022/07/30 08:44:45;;;;;;;2.08;1.63;;;26.50;99.90;;;;;;5072118;28;20279;-61
2022/07/30 08:47:17;;;;;;;2.72;1.75;;;26.10;99.90;;;;;;5070950;28;20230;-61
2022/07/30 08:49:47;;;;;;;3.17;1.70;;;26.60;99.90;;;;;;5071080;28;20204;-62
2022/07/30 08:52:16;;;;;;;4.10;1.88;;;27.70;99.90;;;;;;5071534;28;20208;-62
2022/07/30 08:54:44;;;;;;;1.73;1.58;;;28.50;99.90;;;;;;5068851;28;20216;-62
2022/07/30 08:57:15;;;;;;;4.32;1.80;;;28.70;99.90;;;;;;5061991;28;20199;-62
2022/07/30 08:59:44;;;;;;;2.15;1.40;;;29.00;99.90;;;;;;5065882;28;20230;-62
2022/07/30 09:02:30;;;;;;;3.92;1.88;;;28.70;99.90;;;;;;5068365;28;20196;-62
2022/07/30 09:04:59;;;;;;;1.70;1.60;;;28.30;99.90;;;;;;5067240;28;20197;-62
2022/07/30 09:07:27;;;;;;;6.07;1.70;;;27.30;99.90;;;;;;5070132;28;20254;-61
2022/07/30 09:09:57;;;;;;;1.65;1.48;;;26.80;99.90;;;;;;5066607;28;20192;-61
2022/07/30 09:12:38;;;;;;;3.38;1.50;;;26.60;99.90;;;;;;5072395;28;20230;-62
2022/07/30 09:15:11;;;;;;;2.72;2.15;;;27.30;99.90;;;;;;5058778;28;20251;-62
2022/07/30 09:17:55;;;;;;;3.67;2.17;;;28.80;99.90;;;;;;5066811;28;20220;-61
2022/07/30 09:20:27;;;;;;;3.42;1.55;;;29.40;99.90;;;;;;5072612;28;20188;-62
2022/07/30 09:22:56;;;;;;;3.75;1.92;;;29.20;99.90;;;;;;5072423;28;20622;-61
2022/07/30 09:25:37;;;;;;;3.15;2.13;;;29.00;99.90;;;;;;5063123;28;20258;-61
2022/07/30 09:28:08;;;;;;;3.13;1.77;;;28.30;99.90;;;;;;5051485;28;20207;-61
2022/07/30 09:30:49;;;;;;;2.15;1.77;;;27.70;99.90;;;;;;5068376;28;20201;-61
2022/07/30 09:33:32;;;;;;;4.40;2.30;;;27.40;99.90;;;;;;5076086;28;20229;-61
2022/07/30 09:36:01;;;;;;;2.78;2.42;;;27.40;99.90;;;;;;5072711;28;20255;-61
2022/07/30 09:38:41;;;;;;;6.00;2.45;;;27.10;99.90;;;;;;5076248;28;20198;-61
2022/07/30 09:41:11;;;;;;;4.45;2.75;;;27.00;99.90;;;;;;5071366;28;20235;-61
2022/07/30 09:44:04;;;;;;;4.10;2.45;;;26.70;99.90;;;;;;5073734;28;20201;-61
2022/07/30 09:46:44;;;;;;;4.28;2.40;;;26.50;99.90;;;;;;5075248;28;20223;-62
2022/07/30 09:49:16;;;;;;;4.72;2.58;;;26.70;99.90;;;;;;5070398;28;20574;-62
2022/07/30 09:51:46;;;;;;;3.08;2.28;;;26.80;99.90;;;;;;5068284;28;20194;-61
2022/07/30 09:54:48;;;;;;;3.35;3.00;;;27.10;99.90;;;;;;5072168;28;20295;-61
2022/07/30 09:57:19;;;;;;;2.92;2.70;;;27.30;99.90;;;;;;5065935;28;20285;-62
2022/07/30 09:59:56;;;;;;;4.07;2.75;;;27.80;99.90;;;;;;5063000;28;20194;-61
2022/07/30 10:02:31;;;;;;;3.92;3.47;;;28.20;99.90;;;;;;5070743;28;20206;-62
2022/07/30 10:05:11;;;;;;;4.32;3.42;;;28.30;99.90;;;;;;5068329;28;20744;-62
2022/07/30 10:07:50;;;;;;;6.15;3.20;;;28.60;99.90;;;;;;5070445;28;20246;-62
2022/07/30 10:10:21;;;;;;;3.65;2.83;;;28.90;99.90;;;;;;5072410;28;20538;-61
2022/07/30 10:12:56;;;;;;;5.10;2.80;;;28.80;99.90;;;;;;5068432;28;20755;-62
2022/07/30 10:15:30;;;;;;;4.15;2.72;;;28.90;99.90;;;;;;5069496;28;20227;-62
2022/07/30 10:18:00;;;;;;;7.10;2.95;;;28.50;99.90;;;;;;5066352;28;20223;-61
2022/07/30 10:20:29;;;;;;;4.55;2.70;;;28.50;99.90;;;;;;5071622;28;20272;-62
2022/07/30 10:22:59;;;;;;;3.55;2.50;;;28.50;99.90;;;;;;5072158;28;20235;-65
2022/07/30 10:25:37;;;;;;;3.05;2.47;;;28.80;99.90;;;;;;5094920;28;20192;-63
2022/07/30 10:28:22;;;;;;;4.80;2.60;;;29.20;99.90;;;;;;5071271;28;20291;-63
2022/07/30 10:30:54;;;;;;;6.57;2.75;;;29.40;99.90;;;;;;5069770;28;20207;-62
2022/07/30 10:33:24;;;;;;;7.38;2.83;;;29.10;99.90;;;;;;5071630;28;20223;-62
2022/07/30 10:36:10;;;;;;;7.20;2.53;;;28.80;99.90;;;;;;5071961;28;20228;-62
2022/07/30 10:38:41;;;;;;;5.82;3.17;;;29.00;99.90;;;;;;5069565;28;20200;-62
2022/07/30 10:41:23;;;;;;;5.28;2.85;;;28.70;99.90;;;;;;5065990;28;20214;-62
2022/07/30 10:44:41;;;;;;;4.85;2.50;;;28.30;99.90;;;;;;5068097;28;20211;-62
2022/07/30 10:47:15;;;;;;;7.00;2.70;;;28.20;99.90;;;;;;5070109;28;20194;-62
2022/07/30 10:50:09;;;;;;;4.40;2.75;;;28.20;99.90;;;;;;5065011;28;20205;-62
2022/07/30 10:52:53;;;;;;;9.45;2.47;;;28.20;99.90;;;;;;5069142;28;20208;-62
2022/07/30 10:55:23;;;;;;;3.13;2.47;;;28.10;99.90;;;;;;5069670;28;20875;-62
2022/07/30 10:58:11;;;;;;;7.80;2.50;;;28.50;99.90;;;;;;5062099;28;20195;-63
2022/07/30 11:00:59;;;;;;;3.58;2.38;;;29.30;99.90;;;;;;5068442;28;20205;-63
2022/07/30 11:03:28;;;;;;;2.00;1.90;;;29.90;99.90;;;;;;5065835;28;20188;-63
2022/07/30 11:06:29;;;;;;;3.40;1.95;;;29.70;99.90;;;;;;5067114;28;20199;-63
2022/07/30 11:08:58;;;;;;;2.42;1.92;;;29.20;99.90;;;;;;5027558;28;20746;-63
2022/07/30 11:11:46;;;;;;;2.17;2.00;;;29.30;99.90;;;;;;5030985;28;20225;-63
2022/07/30 11:14:57;;;;;;;2.15;1.95;;;29.50;99.90;;;;;;5054379;28;20189;-62
2022/07/30 11:17:59;;;;;;;3.55;2.20;;;29.60;99.90;;;;;;5027864;28;20197;-62
2022/07/30 11:20:28;;;;;;;4.53;1.83;;;29.90;99.90;;;;;;5024772;28;20538;-62
2022/07/30 11:23:32;;;;;;;2.08;1.77;;;30.10;99.90;;;;;;5033770;28;20201;-62
2022/07/30 11:26:03;;;;;;;5.05;1.85;;;30.00;99.90;;;;;;5016207;28;20202;-62
2022/07/30 11:28:36;;;;;;;2.00;1.90;;;30.00;99.90;;;;;;5026918;28;20666;-63
2022/07/30 11:31:27;;;;;;;2.13;1.70;;;30.10;99.90;;;;;;5029839;28;20201;-62
2022/07/30 11:34:26;;;;;;;4.43;1.90;;;30.40;99.90;;;;;;5026976;28;20679;-62
2022/07/30 11:37:06;;;;;;;3.00;1.67;;;30.10;99.90;;;;;;5030782;28;20888;-61
2022/07/30 11:40:11;;;;;;;3.92;1.50;;;29.90;99.90;;;;;;5030407;28;20633;-61
2022/07/30 11:42:41;;;;;;;3.35;1.73;;;29.40;99.90;;;;;;5031555;28;20712;-61
2022/07/30 11:45:25;;;;;;;1.80;1.70;;;29.20;99.90;;;;;;5019406;28;20279;-61
2022/07/30 11:47:59;;;;;;;3.63;1.65;;;29.20;99.90;;;;;;5025384;28;20610;-61
2022/07/30 11:50:30;;;;;;;2.05;1.48;;;29.20;99.90;;;;;;5043005;28;20196;-61
2022/07/30 11:53:01;;;;;;;4.55;1.60;;;29.50;99.90;;;;;;5028868;28;20218;-61
2022/07/30 11:55:32;;;;;;;1.60;1.52;;;29.40;99.90;;;;;;5031637;28;20217;-61
2022/07/30 11:58:04;;;;;;;1.70;1.60;;;29.60;99.90;;;;;;5034317;28;20671;-61
2022/07/30 12:00:39;;;;;;;1.58;1.45;;;29.80;99.90;;;;;;5031802;28;20681;-61
2022/07/30 12:03:11;;;;;;;4.70;1.55;;;29.50;98.60;;;;;;5033005;28;20202;-61
2022/07/30 12:05:40;;;;;;;4.35;1.85;;;29.20;99.60;;;;;;5033617;28;20671;-61
2022/07/30 12:08:08;;;;;;;4.70;1.80;;;29.20;99.90;;;;;;5055653;28;20309;-61
2022/07/30 12:10:59;;;;;;;3.90;1.60;;;29.10;99.90;;;;;;5070784;28;20193;-61
2022/07/30 12:13:28;;;;;;;1.65;1.27;;;29.10;99.90;;;;;;5068430;28;20203;-61
2022/07/30 12:16:14;;;;;;;3.63;1.70;;;29.10;99.90;;;;;;5064558;28;20239;-61
2022/07/30 12:18:45;;;;;;;7.22;1.83;;;29.10;99.90;;;;;;5071879;28;20665;-61
2022/07/30 12:21:15;;;;;;;1.80;1.52;;;29.20;99.90;;;;;;5066091;28;20193;-61
2022/07/30 12:23:54;;;;;;;3.80;1.60;;;29.10;99.90;;;;;;5070103;28;20222;-61
2022/07/30 12:26:24;;;;;;;1.67;1.50;;;29.30;99.90;;;;;;5069797;28;20203;-61
2022/07/30 12:28:55;;;;;;;1.80;1.60;;;29.10;99.90;;;;;;5068641;28;20196;-61
2022/07/30 12:31:23;;;;;;;1.60;1.50;;;29.10;99.90;;;;;;5067486;28;20649;-61
2022/07/30 12:33:55;;;;;;;1.58;1.48;;;29.00;99.60;;;;;;5068524;28;20209;-61
2022/07/30 12:36:34;;;;;;;1.70;1.60;;;28.90;99.80;;;;;;5067548;28;20225;-61
2022/07/30 12:39:06;;;;;;;3.10;1.42;;;28.90;99.40;;;;;;5065334;28;20278;-61
2022/07/30 12:41:42;;;;;;;1.70;1.48;;;28.70;99.00;;;;;;5073640;28;20225;-61
2022/07/30 12:44:49;;;;;;;4.85;1.70;;;28.70;99.90;;;;;;5082349;28;20196;-61
2022/07/30 12:47:23;;;;;;;6.07;1.80;;;29.00;99.90;;;;;;5067960;28;20524;-61
2022/07/30 12:49:54;;;;;;;5.22;1.65;;;29.00;99.00;;;;;;5064816;28;20232;-61
2022/07/30 12:52:24;;;;;;;3.88;1.60;;;28.80;99.30;;;;;;5060214;28;20269;-61
2022/07/30 12:55:00;;;;;;;2.22;1.98;;;28.90;99.30;;;;;;5077933;28;20204;-61
2022/07/30 12:57:52;;;;;;;2.53;1.60;;;28.70;99.50;;;;;;5059432;28;20299;-61
2022/07/30 13:00:21;;;;;;;1.77;1.67;;;28.70;99.60;;;;;;5066052;28;20192;-61
2022/07/30 13:02:49;;;;;;;3.28;1.60;;;28.80;99.50;;;;;;5067163;28;20701;-61
2022/07/30 13:05:22;;;;;;;1.80;1.67;;;28.90;99.90;;;;;;5068298;28;20228;-61
2022/07/30 13:07:56;;;;;;;1.80;1.42;;;28.90;99.90;;;;;;5067579;28;20220;-61
2022/07/30 13:10:24;;;;;;;2.60;1.40;;;28.90;98.80;;;;;;5064345;28;20224;-61
2022/07/30 13:12:58;;;;;;;2.92;1.60;;;29.00;99.90;;;;;;5069382;28;20199;-61